EWG526 EDDG-EKCH
Flight info
| Callsign | EWG526 |
|---|---|
| Flight time | 0h 56m |
| Altitude | 37000 |
| Route | OSNAD1Z OSNAD M170 STADE L23 HAM P605 GESKA Z711 MONAK |
| Aircraft | A320/M-SDE3FGHIRWY/LB1 |
Departure
| Time | 2026-04-25 15:33 |
|---|---|
| Airport | Münster Osnabrück Airport (EDDG) |
Arrival
| Time | 2026-04-25 16:29 |
|---|---|
| Airport | Copenhagen Kastrup Airport (EKCH) |
| Time | Latitude | Longitude | Altitude | Speed | Heading |
|---|---|---|---|---|---|
| 2026-04-25 15:13 | 52.13177 | 7.69393 | 168 ft | 0 kts | 197° |
| 2026-04-25 15:25 | 52.13195 | 7.69399 | 167 ft | 4 kts | 193° |
| 2026-04-25 15:25 | 52.13220 | 7.69404 | 167 ft | 4 kts | 165° |
| 2026-04-25 15:25 | 52.13238 | 7.69385 | 167 ft | 4 kts | 96° |
| 2026-04-25 15:25 | 52.13238 | 7.69371 | 167 ft | 0 kts | 72° |
| 2026-04-25 15:28 | 52.13240 | 7.69380 | 167 ft | 6 kts | 72° |
| 2026-04-25 15:28 | 52.13273 | 7.69453 | 166 ft | 8 kts | 17° |
| 2026-04-25 15:28 | 52.13328 | 7.69429 | 166 ft | 10 kts | 336° |
| 2026-04-25 15:29 | 52.13394 | 7.69361 | 165 ft | 11 kts | 287° |
| 2026-04-25 15:29 | 52.13401 | 7.69237 | 165 ft | 12 kts | 325° |
| 2026-04-25 15:29 | 52.13459 | 7.69286 | 167 ft | 9 kts | 68° |
| 2026-04-25 15:29 | 52.13478 | 7.69374 | 167 ft | 8 kts | 72° |
| 2026-04-25 15:30 | 52.13495 | 7.69459 | 167 ft | 8 kts | 70° |
| 2026-04-25 15:30 | 52.13517 | 7.69556 | 167 ft | 11 kts | 71° |
| 2026-04-25 15:30 | 52.13548 | 7.69704 | 167 ft | 17 kts | 71° |
| 2026-04-25 15:30 | 52.13592 | 7.69913 | 165 ft | 20 kts | 71° |
| 2026-04-25 15:31 | 52.13692 | 7.70032 | 164 ft | 20 kts | 356° |
| 2026-04-25 15:31 | 52.13771 | 7.69937 | 166 ft | 13 kts | 264° |
| 2026-04-25 15:31 | 52.13763 | 7.69893 | 167 ft | 0 kts | 250° |
| 2026-04-25 15:32 | 52.13730 | 7.69733 | 169 ft | 48 kts | 252° |
| 2026-04-25 15:33 | 52.13244 | 7.67400 | 409 ft | 142 kts | 255° |
| 2026-04-25 15:33 | 52.12912 | 7.65872 | 1117 ft | 145 kts | 254° |
| 2026-04-25 15:33 | 52.12581 | 7.64301 | 1770 ft | 152 kts | 255° |
| 2026-04-25 15:33 | 52.12205 | 7.62535 | 2030 ft | 178 kts | 256° |
| 2026-04-25 15:34 | 52.11781 | 7.60485 | 2282 ft | 207 kts | 254° |
| 2026-04-25 15:34 | 52.11302 | 7.58188 | 2936 ft | 217 kts | 254° |
| 2026-04-25 15:34 | 52.10799 | 7.55842 | 3766 ft | 222 kts | 253° |
| 2026-04-25 15:34 | 52.10306 | 7.54359 | 4298 ft | 231 kts | 234° |
| 2026-04-25 15:35 | 52.06670 | 7.53368 | 4969 ft | 257 kts | 155° |
| 2026-04-25 15:35 | 52.05132 | 7.54868 | 4900 ft | 258 kts | 139° |
| 2026-04-25 15:35 | 52.04112 | 7.57212 | 4969 ft | 256 kts | 110° |
| 2026-04-25 15:36 | 52.03929 | 7.63074 | 5228 ft | 282 kts | 65° |
| 2026-04-25 15:36 | 52.04672 | 7.66021 | 6167 ft | 282 kts | 63° |
| 2026-04-25 15:36 | 52.05415 | 7.68998 | 7048 ft | 286 kts | 63° |
| 2026-04-25 15:37 | 52.06150 | 7.71985 | 7886 ft | 290 kts | 63° |
| 2026-04-25 15:37 | 52.06899 | 7.75048 | 8752 ft | 293 kts | 64° |
| 2026-04-25 15:37 | 52.07662 | 7.78157 | 9604 ft | 297 kts | 64° |
| 2026-04-25 15:37 | 52.08438 | 7.81295 | 10358 ft | 304 kts | 63° |
| 2026-04-25 15:38 | 52.09263 | 7.84601 | 10630 ft | 328 kts | 63° |
| 2026-04-25 15:38 | 52.10147 | 7.88138 | 11033 ft | 344 kts | 64° |
| 2026-04-25 15:38 | 52.11053 | 7.91796 | 11674 ft | 351 kts | 64° |
| 2026-04-25 15:38 | 52.11968 | 7.95522 | 12370 ft | 357 kts | 64° |
| 2026-04-25 15:39 | 52.12892 | 7.99297 | 13079 ft | 362 kts | 64° |
| 2026-04-25 15:39 | 52.13829 | 8.03131 | 13761 ft | 367 kts | 63° |
| 2026-04-25 15:39 | 52.14767 | 8.06972 | 14370 ft | 372 kts | 63° |
| 2026-04-25 15:39 | 52.15726 | 8.10902 | 14984 ft | 375 kts | 63° |
| 2026-04-25 15:40 | 52.16694 | 8.14874 | 15613 ft | 379 kts | 63° |
| 2026-04-25 15:40 | 52.17351 | 8.17578 | 16035 ft | 381 kts | 63° |
| 2026-04-25 15:40 | 52.18715 | 8.22890 | 16852 ft | 383 kts | 57° |
| 2026-04-25 15:40 | 52.20150 | 8.26516 | 17457 ft | 380 kts | 46° |
| 2026-04-25 15:41 | 52.21967 | 8.29603 | 18072 ft | 376 kts | 34° |
| 2026-04-25 15:41 | 52.24083 | 8.32062 | 18646 ft | 372 kts | 23° |
| 2026-04-25 15:41 | 52.26372 | 8.34052 | 19184 ft | 373 kts | 21° |
| 2026-04-25 15:41 | 52.28678 | 8.36040 | 19731 ft | 376 kts | 21° |
| 2026-04-25 15:42 | 52.31002 | 8.38059 | 20268 ft | 379 kts | 22° |
| 2026-04-25 15:42 | 52.33337 | 8.40102 | 20804 ft | 381 kts | 22° |
| 2026-04-25 15:42 | 52.35683 | 8.42162 | 21322 ft | 384 kts | 22° |
| 2026-04-25 15:42 | 52.38040 | 8.44231 | 21845 ft | 386 kts | 22° |
| 2026-04-25 15:43 | 52.40388 | 8.46288 | 22356 ft | 388 kts | 22° |
| 2026-04-25 15:43 | 52.42782 | 8.48387 | 22882 ft | 391 kts | 22° |
| 2026-04-25 15:43 | 52.45190 | 8.50498 | 23375 ft | 393 kts | 22° |
| 2026-04-25 15:43 | 52.47612 | 8.52622 | 23854 ft | 395 kts | 21° |
| 2026-04-25 15:44 | 52.50053 | 8.54765 | 24282 ft | 397 kts | 22° |
| 2026-04-25 15:44 | 52.52493 | 8.56912 | 24690 ft | 399 kts | 22° |
| 2026-04-25 15:44 | 52.54911 | 8.59046 | 25085 ft | 401 kts | 22° |
| 2026-04-25 15:44 | 52.57377 | 8.61228 | 25481 ft | 403 kts | 22° |
| 2026-04-25 15:45 | 52.59856 | 8.63425 | 25854 ft | 405 kts | 22° |
| 2026-04-25 15:45 | 52.62337 | 8.65630 | 26246 ft | 407 kts | 22° |
| 2026-04-25 15:45 | 52.64834 | 8.67846 | 26626 ft | 408 kts | 22° |
| 2026-04-25 15:45 | 52.66497 | 8.69319 | 26878 ft | 410 kts | 22° |
| 2026-04-25 15:46 | 52.69868 | 8.72309 | 27409 ft | 412 kts | 22° |
| 2026-04-25 15:46 | 52.72396 | 8.74556 | 27795 ft | 413 kts | 22° |
| 2026-04-25 15:46 | 52.74938 | 8.76818 | 28172 ft | 415 kts | 22° |
| 2026-04-25 15:46 | 52.77485 | 8.79087 | 28528 ft | 417 kts | 22° |
| 2026-04-25 15:47 | 52.80018 | 8.81351 | 28869 ft | 419 kts | 22° |
| 2026-04-25 15:47 | 52.82588 | 8.83655 | 29220 ft | 421 kts | 22° |
| 2026-04-25 15:47 | 52.85172 | 8.85974 | 29560 ft | 423 kts | 22° |
| 2026-04-25 15:47 | 52.87769 | 8.88308 | 29886 ft | 425 kts | 22° |
| 2026-04-25 15:48 | 52.90377 | 8.90654 | 30194 ft | 427 kts | 22° |
| 2026-04-25 15:48 | 52.92994 | 8.93011 | 30489 ft | 429 kts | 22° |
| 2026-04-25 15:48 | 52.95620 | 8.95377 | 30784 ft | 429 kts | 22° |
| 2026-04-25 15:48 | 52.98245 | 8.97739 | 31067 ft | 430 kts | 22° |
| 2026-04-25 15:49 | 53.00883 | 9.00113 | 31322 ft | 432 kts | 22° |
| 2026-04-25 15:49 | 53.03527 | 9.02498 | 31646 ft | 431 kts | 22° |
| 2026-04-25 15:49 | 53.06128 | 9.04857 | 32021 ft | 430 kts | 22° |
| 2026-04-25 15:49 | 53.08751 | 9.07243 | 32388 ft | 429 kts | 22° |
| 2026-04-25 15:50 | 53.11364 | 9.09626 | 32748 ft | 428 kts | 22° |
| 2026-04-25 15:50 | 53.13970 | 9.12011 | 33108 ft | 427 kts | 22° |
| 2026-04-25 15:50 | 53.16574 | 9.14393 | 33470 ft | 426 kts | 22° |
| 2026-04-25 15:50 | 53.19169 | 9.16760 | 33828 ft | 425 kts | 22° |
| 2026-04-25 15:51 | 53.21760 | 9.19118 | 34169 ft | 424 kts | 22° |
| 2026-04-25 15:51 | 53.23475 | 9.20680 | 34370 ft | 423 kts | 22° |
| 2026-04-25 15:51 | 53.26934 | 9.23840 | 34750 ft | 423 kts | 22° |
| 2026-04-25 15:51 | 53.29515 | 9.26204 | 35010 ft | 423 kts | 22° |
| 2026-04-25 15:52 | 53.32092 | 9.28570 | 35294 ft | 423 kts | 22° |
| 2026-04-25 15:52 | 53.34671 | 9.30942 | 35544 ft | 422 kts | 22° |
| 2026-04-25 15:52 | 53.37213 | 9.33282 | 35787 ft | 422 kts | 22° |
| 2026-04-25 15:52 | 53.39784 | 9.35656 | 36076 ft | 422 kts | 22° |
| 2026-04-25 15:53 | 53.42349 | 9.38037 | 36349 ft | 421 kts | 22° |
| 2026-04-25 15:53 | 53.44903 | 9.40425 | 36578 ft | 421 kts | 24° |
| 2026-04-25 15:53 | 53.47314 | 9.43310 | 36803 ft | 431 kts | 34° |
| 2026-04-25 15:53 | 53.49424 | 9.46961 | 37007 ft | 441 kts | 44° |
| 2026-04-25 15:54 | 53.51150 | 9.51292 | 37099 ft | 451 kts | 55° |
| 2026-04-25 15:54 | 53.52468 | 9.56116 | 37106 ft | 455 kts | 60° |
| 2026-04-25 15:54 | 53.54948 | 9.65904 | 37109 ft | 455 kts | 60° |
| 2026-04-25 15:55 | 53.57414 | 9.75713 | 37114 ft | 455 kts | 60° |
| 2026-04-25 15:55 | 53.59857 | 9.85475 | 37129 ft | 456 kts | 60° |
| 2026-04-25 15:56 | 53.62327 | 9.95372 | 37075 ft | 459 kts | 60° |
| 2026-04-25 15:56 | 53.64801 | 10.05304 | 37089 ft | 459 kts | 60° |
| 2026-04-25 15:57 | 53.67271 | 10.15242 | 37076 ft | 458 kts | 58° |
| 2026-04-25 15:57 | 53.70577 | 10.24067 | 37068 ft | 440 kts | 41° |
| 2026-04-25 15:58 | 53.74733 | 10.31605 | 37034 ft | 437 kts | 39° |
| 2026-04-25 15:58 | 53.78900 | 10.39125 | 37032 ft | 438 kts | 39° |
| 2026-04-25 15:59 | 53.83061 | 10.46673 | 37047 ft | 439 kts | 39° |
| 2026-04-25 15:59 | 53.87202 | 10.54219 | 37061 ft | 440 kts | 38° |
| 2026-04-25 16:00 | 53.89985 | 10.59297 | 37027 ft | 440 kts | 38° |
| 2026-04-25 16:00 | 53.95544 | 10.69468 | 37029 ft | 441 kts | 38° |
| 2026-04-25 16:01 | 53.99728 | 10.77046 | 36734 ft | 441 kts | 38° |
| 2026-04-25 16:01 | 54.01830 | 10.80852 | 36416 ft | 441 kts | 38° |
| 2026-04-25 16:01 | 54.03939 | 10.84683 | 35576 ft | 445 kts | 38° |
| 2026-04-25 16:02 | 54.06057 | 10.88545 | 34793 ft | 448 kts | 38° |
| 2026-04-25 16:02 | 54.08172 | 10.92425 | 34268 ft | 445 kts | 37° |
| 2026-04-25 16:02 | 54.10267 | 10.96284 | 33679 ft | 441 kts | 37° |
| 2026-04-25 16:02 | 54.12341 | 11.00109 | 33133 ft | 436 kts | 37° |
| 2026-04-25 16:03 | 54.14384 | 11.03894 | 32599 ft | 431 kts | 37° |
| 2026-04-25 16:03 | 54.16402 | 11.07646 | 32066 ft | 427 kts | 37° |
| 2026-04-25 16:03 | 54.18402 | 11.11374 | 31539 ft | 423 kts | 37° |
| 2026-04-25 16:03 | 54.20378 | 11.15061 | 31036 ft | 419 kts | 37° |
| 2026-04-25 16:04 | 54.22340 | 11.18716 | 30536 ft | 415 kts | 37° |
| 2026-04-25 16:04 | 54.24288 | 11.22345 | 30090 ft | 413 kts | 36° |
| 2026-04-25 16:04 | 54.26228 | 11.25967 | 29479 ft | 412 kts | 36° |
| 2026-04-25 16:04 | 54.28145 | 11.29569 | 29014 ft | 406 kts | 36° |
| 2026-04-25 16:05 | 54.30010 | 11.33091 | 28550 ft | 402 kts | 36° |
| 2026-04-25 16:05 | 54.31873 | 11.36610 | 28069 ft | 397 kts | 36° |
| 2026-04-25 16:05 | 54.35539 | 11.43538 | 27191 ft | 387 kts | 35° |
| 2026-04-25 16:06 | 54.37345 | 11.46948 | 26762 ft | 383 kts | 35° |
| 2026-04-25 16:06 | 54.39130 | 11.50311 | 26345 ft | 379 kts | 35° |
| 2026-04-25 16:06 | 54.40901 | 11.53643 | 25851 ft | 377 kts | 34° |
| 2026-04-25 16:06 | 54.42660 | 11.56958 | 25417 ft | 374 kts | 34° |
| 2026-04-25 16:07 | 54.44407 | 11.60258 | 24986 ft | 372 kts | 34° |
| 2026-04-25 16:07 | 54.44972 | 11.61328 | 24926 ft | 371 kts | 34° |
| 2026-04-25 16:07 | 54.47933 | 11.66905 | 24185 ft | 382 kts | 34° |
| 2026-04-25 16:07 | 54.49699 | 11.70238 | 23726 ft | 382 kts | 34° |
| 2026-04-25 16:08 | 54.51481 | 11.73617 | 23306 ft | 381 kts | 34° |
| 2026-04-25 16:08 | 54.53257 | 11.77000 | 22894 ft | 380 kts | 34° |
| 2026-04-25 16:08 | 54.55022 | 11.80378 | 22480 ft | 377 kts | 34° |
| 2026-04-25 16:08 | 54.56770 | 11.83731 | 22080 ft | 375 kts | 34° |
| 2026-04-25 16:09 | 54.58505 | 11.87064 | 21679 ft | 372 kts | 34° |
| 2026-04-25 16:09 | 54.60232 | 11.90377 | 21288 ft | 370 kts | 34° |
| 2026-04-25 16:09 | 54.62029 | 11.93440 | 20926 ft | 356 kts | 25° |
| 2026-04-25 16:09 | 54.64009 | 11.95873 | 20542 ft | 346 kts | 19° |
| 2026-04-25 16:10 | 54.65340 | 11.97388 | 20293 ft | 345 kts | 19° |
| 2026-04-25 16:10 | 54.68011 | 12.00455 | 19826 ft | 343 kts | 19° |
| 2026-04-25 16:10 | 54.69989 | 12.02743 | 19433 ft | 340 kts | 19° |
| 2026-04-25 16:10 | 54.71947 | 12.05015 | 19049 ft | 338 kts | 19° |
| 2026-04-25 16:11 | 54.73863 | 12.07241 | 18673 ft | 335 kts | 19° |
| 2026-04-25 16:11 | 54.75793 | 12.09487 | 18330 ft | 333 kts | 19° |
| 2026-04-25 16:11 | 54.77748 | 12.11747 | 17421 ft | 344 kts | 19° |
| 2026-04-25 16:11 | 54.79755 | 12.14057 | 16807 ft | 347 kts | 20° |
| 2026-04-25 16:12 | 54.81750 | 12.16380 | 16413 ft | 343 kts | 20° |
| 2026-04-25 16:12 | 54.83718 | 12.18686 | 16009 ft | 339 kts | 20° |
| 2026-04-25 16:12 | 54.85663 | 12.20967 | 15636 ft | 336 kts | 20° |
| 2026-04-25 16:12 | 54.86293 | 12.21704 | 15506 ft | 335 kts | 20° |
| 2026-04-25 16:13 | 54.88870 | 12.24714 | 14998 ft | 331 kts | 20° |
| 2026-04-25 16:13 | 54.91389 | 12.27658 | 14536 ft | 329 kts | 21° |
| 2026-04-25 16:13 | 54.92671 | 12.29159 | 14239 ft | 329 kts | 21° |
| 2026-04-25 16:13 | 54.94566 | 12.31380 | 13855 ft | 328 kts | 21° |
| 2026-04-25 16:14 | 54.96455 | 12.33595 | 13423 ft | 326 kts | 21° |
| 2026-04-25 16:14 | 54.98311 | 12.35769 | 13031 ft | 324 kts | 21° |
| 2026-04-25 16:14 | 55.00220 | 12.37713 | 12636 ft | 310 kts | 12° |
| 2026-04-25 16:14 | 55.02203 | 12.38894 | 12269 ft | 295 kts | 2° |
| 2026-04-25 16:15 | 55.04178 | 12.39796 | 11910 ft | 292 kts | 3° |
| 2026-04-25 16:15 | 55.06139 | 12.40695 | 11543 ft | 289 kts | 3° |
| 2026-04-25 16:15 | 55.08078 | 12.41590 | 11190 ft | 287 kts | 3° |
| 2026-04-25 16:15 | 55.10001 | 12.42480 | 10827 ft | 284 kts | 3° |
| 2026-04-25 16:16 | 55.11907 | 12.43359 | 10473 ft | 282 kts | 4° |
| 2026-04-25 16:16 | 55.13793 | 12.44227 | 10112 ft | 279 kts | 4° |
| 2026-04-25 16:16 | 55.15655 | 12.45086 | 9920 ft | 272 kts | 4° |
| 2026-04-25 16:16 | 55.17439 | 12.45918 | 9706 ft | 265 kts | 4° |
| 2026-04-25 16:17 | 55.19218 | 12.46747 | 9433 ft | 264 kts | 4° |
| 2026-04-25 16:17 | 55.20987 | 12.47569 | 9081 ft | 262 kts | 5° |
| 2026-04-25 16:17 | 55.22733 | 12.48494 | 8741 ft | 266 kts | 12° |
| 2026-04-25 16:17 | 55.24433 | 12.49764 | 8447 ft | 266 kts | 13° |
| 2026-04-25 16:18 | 55.26132 | 12.51036 | 8133 ft | 264 kts | 13° |
| 2026-04-25 16:18 | 55.26700 | 12.51461 | 8040 ft | 264 kts | 13° |
| 2026-04-25 16:18 | 55.29496 | 12.53559 | 7536 ft | 262 kts | 14° |
| 2026-04-25 16:18 | 55.31170 | 12.54817 | 7238 ft | 261 kts | 14° |
| 2026-04-25 16:19 | 55.32834 | 12.56069 | 6941 ft | 260 kts | 14° |
| 2026-04-25 16:19 | 55.34487 | 12.57330 | 6643 ft | 260 kts | 18° |
| 2026-04-25 16:19 | 55.35997 | 12.59174 | 6327 ft | 270 kts | 36° |
| 2026-04-25 16:20 | 55.37807 | 12.65138 | 5670 ft | 288 kts | 68° |
| 2026-04-25 16:20 | 55.38330 | 12.68533 | 5343 ft | 287 kts | 68° |
| 2026-04-25 16:20 | 55.39357 | 12.75229 | 4797 ft | 285 kts | 68° |
| 2026-04-25 16:21 | 55.39873 | 12.78606 | 4501 ft | 285 kts | 68° |
| 2026-04-25 16:21 | 55.40386 | 12.81960 | 4209 ft | 281 kts | 68° |
| 2026-04-25 16:21 | 55.40881 | 12.85210 | 4098 ft | 269 kts | 68° |
| 2026-04-25 16:21 | 55.41444 | 12.88240 | 3942 ft | 252 kts | 55° |
| 2026-04-25 16:22 | 55.42387 | 12.90692 | 3737 ft | 234 kts | 37° |
| 2026-04-25 16:22 | 55.43613 | 12.92481 | 3610 ft | 224 kts | 22° |
| 2026-04-25 16:22 | 55.44906 | 12.93943 | 3487 ft | 221 kts | 23° |
| 2026-04-25 16:22 | 55.46177 | 12.95407 | 3352 ft | 217 kts | 23° |
| 2026-04-25 16:23 | 55.47443 | 12.96865 | 3222 ft | 215 kts | 22° |
| 2026-04-25 16:23 | 55.48774 | 12.97689 | 3109 ft | 195 kts | 350° |
| 2026-04-25 16:23 | 55.49995 | 12.96995 | 3023 ft | 182 kts | 318° |
| 2026-04-25 16:23 | 55.50749 | 12.95260 | 2997 ft | 180 kts | 299° |
| 2026-04-25 16:24 | 55.51399 | 12.93365 | 2996 ft | 181 kts | 303° |
| 2026-04-25 16:24 | 55.52096 | 12.91517 | 2994 ft | 178 kts | 304° |
| 2026-04-25 16:24 | 55.52764 | 12.89780 | 2964 ft | 164 kts | 304° |
| 2026-04-25 16:24 | 55.53393 | 12.88139 | 2866 ft | 160 kts | 304° |
| 2026-04-25 16:25 | 55.54008 | 12.86509 | 2693 ft | 159 kts | 304° |
| 2026-04-25 16:25 | 55.54413 | 12.85429 | 2563 ft | 159 kts | 304° |
| 2026-04-25 16:25 | 55.55220 | 12.83272 | 2302 ft | 157 kts | 303° |
| 2026-04-25 16:25 | 55.55811 | 12.81688 | 2076 ft | 151 kts | 303° |
| 2026-04-25 16:26 | 55.56364 | 12.80205 | 1877 ft | 138 kts | 303° |
| 2026-04-25 16:26 | 55.56874 | 12.78837 | 1701 ft | 130 kts | 303° |
| 2026-04-25 16:26 | 55.57363 | 12.77524 | 1509 ft | 122 kts | 303° |
| 2026-04-25 16:26 | 55.57802 | 12.76345 | 1342 ft | 109 kts | 303° |
| 2026-04-25 16:27 | 55.58207 | 12.75256 | 1195 ft | 104 kts | 303° |
| 2026-04-25 16:27 | 55.58605 | 12.74182 | 1076 ft | 105 kts | 303° |
| 2026-04-25 16:27 | 55.59002 | 12.73099 | 954 ft | 105 kts | 302° |
| 2026-04-25 16:27 | 55.59414 | 12.72019 | 781 ft | 107 kts | 304° |
| 2026-04-25 16:28 | 55.59826 | 12.70921 | 636 ft | 106 kts | 303° |
| 2026-04-25 16:28 | 55.60235 | 12.69819 | 463 ft | 108 kts | 303° |
| 2026-04-25 16:28 | 55.60658 | 12.68677 | 325 ft | 116 kts | 302° |
| 2026-04-25 16:28 | 55.61082 | 12.67515 | 172 ft | 113 kts | 303° |
| 2026-04-25 16:29 | 55.61508 | 12.66376 | 43 ft | 108 kts | 302° |
| 2026-04-25 16:29 | 55.61860 | 12.65417 | 27 ft | 71 kts | 303° |
| 2026-04-25 16:29 | 55.62057 | 12.64887 | 25 ft | 39 kts | 303° |
| 2026-04-25 16:29 | 55.62182 | 12.64545 | 23 ft | 28 kts | 304° |
| 2026-04-25 16:30 | 55.62315 | 12.64423 | 23 ft | 20 kts | 357° |
| 2026-04-25 16:30 | 55.62368 | 12.64441 | 24 ft | 0 kts | 10° |
| 2026-04-25 16:31 | 55.62379 | 12.64444 | 24 ft | 6 kts | 10° |
| 2026-04-25 16:31 | 55.62427 | 12.64430 | 24 ft | 8 kts | 323° |
| 2026-04-25 16:32 | 55.62463 | 12.64356 | 24 ft | 8 kts | 308° |
| 2026-04-25 16:32 | 55.62497 | 12.64279 | 24 ft | 8 kts | 307° |
| 2026-04-25 16:32 | 55.62527 | 12.64202 | 24 ft | 7 kts | 305° |
| 2026-04-25 16:32 | 55.62554 | 12.64127 | 25 ft | 8 kts | 302° |
| 2026-04-25 16:33 | 55.62589 | 12.64031 | 24 ft | 13 kts | 302° |
| 2026-04-25 16:33 | 55.62636 | 12.63902 | 24 ft | 11 kts | 303° |
| 2026-04-25 16:33 | 55.62653 | 12.63857 | 26 ft | 0 kts | 303° |
| 2026-04-25 16:33 | 55.62659 | 12.63851 | 25 ft | 6 kts | 322° |
| 2026-04-25 16:34 | 55.62735 | 12.63911 | 24 ft | 18 kts | 31° |
| 2026-04-25 16:34 | 55.62821 | 12.63942 | 24 ft | 12 kts | 320° |
| 2026-04-25 16:34 | 55.62870 | 12.63928 | 24 ft | 7 kts | 11° |
| 2026-04-25 16:34 | 55.62886 | 12.63933 | 24 ft | 0 kts | 11° |